createdAt,value
2022-12-11T00:02:49.402Z,-0.20
2022-12-11T00:07:51.272Z,-0.20
2022-12-11T00:12:52.948Z,-0.10
2022-12-11T00:17:54.687Z,-0.20
2022-12-11T00:22:56.361Z,-0.20
2022-12-11T00:27:58.068Z,-0.20
2022-12-11T00:32:59.769Z,-0.30
2022-12-11T00:38:01.564Z,-0.20
2022-12-11T00:43:04.123Z,-0.30
2022-12-11T00:48:06.288Z,-0.20
2022-12-11T00:53:08.262Z,-0.20
2022-12-11T00:58:11.023Z,-0.10
2022-12-11T01:03:14.374Z,-0.10
2022-12-11T01:08:16.177Z,-0.10
2022-12-11T01:13:17.893Z,-0.20
2022-12-11T01:18:19.568Z,-0.20
2022-12-11T01:23:21.281Z,-0.20
2022-12-11T01:28:22.977Z,-0.20
2022-12-11T01:33:24.640Z,-0.30
2022-12-11T01:38:26.437Z,-0.50
2022-12-11T01:43:28.188Z,-0.30
2022-12-11T01:48:32.913Z,-0.20
2022-12-11T01:53:40.382Z,-0.20
2022-12-11T01:58:48.857Z,-0.10
2022-12-11T02:03:50.992Z,-0.10
2022-12-11T02:08:52.736Z,-0.10
2022-12-11T02:14:12.999Z,-0.30
2022-12-11T02:19:23.236Z,-0.20
2022-12-11T02:24:53.348Z,-0.20
2022-12-11T02:30:14.413Z,-0.10
2022-12-11T02:35:21.432Z,-0.20
2022-12-11T02:40:28.159Z,-0.20
2022-12-11T02:45:31.017Z,-0.10
2022-12-11T02:50:34.993Z,-0.30
2022-12-11T02:55:38.029Z,-0.10
2022-12-11T03:00:40.022Z,-0.30
2022-12-11T03:05:42.655Z,-0.30
2022-12-11T03:10:45.459Z,-0.30
2022-12-11T03:16:17.147Z,-0.40
2022-12-11T03:21:22.845Z,-0.30
2022-12-11T03:26:25.059Z,-0.50
2022-12-11T03:31:36.720Z,-0.30
2022-12-11T03:36:39.919Z,-0.30
2022-12-11T03:41:44.095Z,-0.40
2022-12-11T03:46:47.983Z,-0.30
2022-12-11T03:51:52.209Z,-0.30
2022-12-11T03:56:58.126Z,-0.40
2022-12-11T04:01:59.962Z,-0.30
2022-12-11T04:07:01.677Z,-0.50
2022-12-11T04:12:03.778Z,-0.50
2022-12-11T04:17:05.825Z,-0.70
2022-12-11T04:22:26.736Z,-0.60
2022-12-11T04:27:47.333Z,-0.70
2022-12-11T04:32:49.708Z,-0.60
2022-12-11T04:37:52.347Z,-0.60
2022-12-11T04:42:54.161Z,-0.60
2022-12-11T04:47:55.843Z,-0.70
2022-12-11T04:52:57.741Z,-0.70
2022-12-11T04:57:59.451Z,-0.70
2022-12-11T05:03:01.163Z,-0.80
2022-12-11T05:08:02.936Z,-0.80
2022-12-11T05:13:04.759Z,-0.90
2022-12-11T05:18:06.504Z,-0.80
2022-12-11T05:23:08.193Z,-0.90
2022-12-11T05:28:09.959Z,-0.80
2022-12-11T05:33:11.709Z,-0.90
2022-12-11T05:38:13.384Z,-0.90
2022-12-11T05:43:15.103Z,-0.90
2022-12-11T05:48:16.885Z,-1.00
2022-12-11T05:53:18.586Z,-0.80
2022-12-11T05:58:21.299Z,-0.90
2022-12-11T06:03:22.988Z,-1.00
2022-12-11T06:08:24.702Z,-1.00
2022-12-11T06:13:26.667Z,-0.90
2022-12-11T06:18:28.353Z,-0.80
2022-12-11T06:23:30.022Z,-0.70
2022-12-11T06:28:31.674Z,-0.80
2022-12-11T06:33:33.777Z,-0.80
2022-12-11T06:38:35.726Z,-0.80
2022-12-11T06:43:40.131Z,-1.00
2022-12-11T06:48:42.473Z,-0.90
2022-12-11T06:53:44.687Z,-0.90
2022-12-11T06:58:46.458Z,-1.00
2022-12-11T07:03:48.316Z,-0.90
2022-12-11T07:08:50.313Z,-0.70
2022-12-11T07:13:52.201Z,-0.70
2022-12-11T07:18:53.922Z,-0.70
2022-12-11T07:23:55.605Z,-0.70
2022-12-11T07:28:58.790Z,-0.70
2022-12-11T07:34:03.567Z,-0.50
2022-12-11T07:39:05.288Z,-0.40
2022-12-11T07:44:07.062Z,-0.40
2022-12-11T07:49:08.761Z,-0.40
2022-12-11T07:54:16.613Z,-0.30
2022-12-11T07:59:18.421Z,-0.30
2022-12-11T08:04:20.151Z,-0.20
2022-12-11T08:09:22.694Z,-0.50
2022-12-11T08:14:24.503Z,-0.10
2022-12-11T08:19:26.343Z,-0.10
2022-12-11T08:24:28.039Z,0.00
2022-12-11T08:29:29.746Z,-0.10
2022-12-11T08:34:31.422Z,-0.40
2022-12-11T08:39:33.086Z,-0.40
2022-12-11T08:44:34.831Z,-0.20
2022-12-11T08:49:36.907Z,-0.40
2022-12-11T08:54:38.658Z,-0.40
2022-12-11T08:59:40.449Z,-0.10
2022-12-11T09:04:42.563Z,-0.40
2022-12-11T09:09:44.245Z,-0.40
2022-12-11T09:14:45.949Z,-0.30
2022-12-11T09:19:47.599Z,-0.30
2022-12-11T09:24:49.281Z,0.00
2022-12-11T09:29:51.549Z,-0.10
2022-12-11T09:34:53.228Z,-0.30
2022-12-11T09:39:54.923Z,-0.20
2022-12-11T09:45:03.002Z,-0.10
2022-12-11T09:50:10.817Z,0.10
2022-12-11T09:55:19.485Z,0.20
2022-12-11T10:00:47.685Z,0.50
2022-12-11T10:06:02.603Z,0.10
2022-12-11T10:11:30.196Z,-0.40
2022-12-11T10:16:44.979Z,-0.20
2022-12-11T10:21:47.869Z,-0.10
2022-12-11T10:26:57.967Z,0.00
2022-12-11T10:31:59.718Z,-0.30
2022-12-11T10:37:02.343Z,-0.20
2022-12-11T10:42:19.282Z,-0.30
2022-12-11T10:47:20.980Z,-0.20
2022-12-11T10:52:26.566Z,0.00
2022-12-11T10:57:31.924Z,-0.10
2022-12-11T11:02:38.830Z,-0.40
2022-12-11T11:07:40.593Z,-0.20
2022-12-11T11:12:47.779Z,0.10
2022-12-11T11:17:55.741Z,0.30
2022-12-11T11:23:00.569Z,-0.10
2022-12-11T11:28:07.692Z,0.10
2022-12-11T11:33:21.301Z,-0.10
2022-12-11T11:38:33.617Z,0.20
2022-12-11T11:43:44.892Z,0.60
2022-12-11T11:48:49.562Z,0.00
2022-12-11T11:53:55.463Z,-0.10
2022-12-11T11:59:02.195Z,0.10
2022-12-11T12:04:04.826Z,0.10
2022-12-11T12:09:39.100Z,0.30
2022-12-11T12:15:20.475Z,0.70
2022-12-11T12:20:48.132Z,0.30
2022-12-11T12:26:01.825Z,0.20
2022-12-11T12:31:18.592Z,0.10
2022-12-11T12:36:59.393Z,-0.10
2022-12-11T12:42:11.437Z,0.20
2022-12-11T12:47:17.794Z,0.40
2022-12-11T12:52:26.447Z,0.30
2022-12-11T12:57:28.407Z,0.20
2022-12-11T13:02:30.771Z,0.30
2022-12-11T13:07:33.665Z,0.20
2022-12-11T13:12:46.784Z,-0.20
2022-12-11T13:17:48.507Z,-0.30
2022-12-11T13:23:15.929Z,-0.30
2022-12-11T13:28:37.772Z,-0.40
2022-12-11T13:33:52.592Z,-0.40
2022-12-11T13:39:05.711Z,0.00
2022-12-11T13:44:08.290Z,-0.20
2022-12-11T13:49:22.082Z,-0.40
2022-12-11T13:54:24.650Z,-0.30
2022-12-11T13:59:35.854Z,-0.50
2022-12-11T14:04:37.972Z,0.00
2022-12-11T14:09:44.298Z,-0.30
2022-12-11T14:14:54.445Z,-0.10
2022-12-11T14:19:59.433Z,-0.40
2022-12-11T14:25:16.512Z,-0.50
2022-12-11T14:30:27.002Z,-0.70
2022-12-11T14:35:39.356Z,-0.70
2022-12-11T14:40:45.471Z,-0.70
2022-12-11T14:45:50.220Z,-0.80
2022-12-11T14:50:55.130Z,-0.90
2022-12-11T14:56:01.331Z,-0.80
2022-12-11T15:01:06.556Z,-0.60
2022-12-11T15:06:30.454Z,-0.70
2022-12-11T15:11:32.786Z,-0.50
2022-12-11T15:16:39.651Z,-0.70
2022-12-11T15:21:41.411Z,-0.70
2022-12-11T15:26:47.971Z,-0.70
2022-12-11T15:32:04.456Z,-0.70
2022-12-11T15:37:23.259Z,-0.90
2022-12-11T15:42:32.221Z,-0.80
2022-12-11T15:47:33.962Z,-1.00
2022-12-11T15:52:35.641Z,-1.00
2022-12-11T15:57:37.752Z,-1.00
2022-12-11T16:02:39.498Z,-0.80
2022-12-11T16:07:41.335Z,-0.90
2022-12-11T16:12:43.412Z,-0.90
2022-12-11T16:17:45.155Z,-0.80
2022-12-11T16:22:46.857Z,-0.70
2022-12-11T16:27:48.580Z,-0.70
2022-12-11T16:32:51.052Z,-0.70
2022-12-11T16:37:53.910Z,-0.80
2022-12-11T16:42:56.895Z,-1.00
2022-12-11T16:47:58.655Z,-1.20
2022-12-11T16:53:00.653Z,-0.90
2022-12-11T16:58:02.404Z,-0.90
2022-12-11T17:03:04.288Z,-0.80
2022-12-11T17:08:07.089Z,-0.80
2022-12-11T17:13:08.914Z,-1.00
2022-12-11T17:18:11.730Z,-1.10
2022-12-11T17:23:13.630Z,-1.00
2022-12-11T17:34:37.635Z,-1.00
2022-12-11T17:39:40.000Z,-1.20
2022-12-11T17:44:41.929Z,-1.10
2022-12-11T17:49:43.682Z,-1.00
2022-12-11T17:54:45.428Z,-0.90
2022-12-11T17:59:47.299Z,-0.90
2022-12-11T18:04:49.696Z,-0.90
2022-12-11T18:09:51.377Z,-1.10
2022-12-11T18:14:53.128Z,-1.20
2022-12-11T18:19:55.042Z,-1.00
2022-12-11T18:24:58.459Z,-0.90
2022-12-11T18:30:00.397Z,-0.90
2022-12-11T18:35:03.072Z,-1.00
2022-12-11T18:40:05.940Z,-1.00
2022-12-11T18:45:08.246Z,-1.10
2022-12-11T18:50:10.006Z,-1.00
2022-12-11T18:55:12.114Z,-0.80
2022-12-11T19:00:14.922Z,-1.00
2022-12-11T19:05:16.668Z,-0.90
2022-12-11T19:10:18.358Z,-1.00
2022-12-11T19:15:23.773Z,-0.80
2022-12-11T19:20:48.137Z,-0.80
2022-12-11T19:25:48.983Z,-1.10
2022-12-11T19:30:50.841Z,-0.90
2022-12-11T19:36:07.431Z,-1.00
2022-12-11T19:41:13.567Z,-1.00
2022-12-11T19:46:15.978Z,-0.90
2022-12-11T19:51:24.694Z,-1.10
2022-12-11T19:56:26.438Z,-0.90
2022-12-11T20:01:31.180Z,-0.80
2022-12-11T20:06:35.084Z,-1.10
2022-12-11T20:11:37.989Z,-1.20
2022-12-11T20:17:09.432Z,-1.10
2022-12-11T20:22:01.402Z,-1.20
2022-12-11T20:27:03.271Z,-1.10
2022-12-11T20:32:05.605Z,-1.10
2022-12-11T20:37:07.991Z,-1.20
2022-12-11T20:42:11.045Z,-1.00
2022-12-11T20:47:13.533Z,-0.90
2022-12-11T20:52:15.864Z,-1.10
2022-12-11T20:57:17.732Z,-0.90
2022-12-11T21:02:19.607Z,-0.90
2022-12-11T21:07:21.586Z,-0.80
2022-12-11T21:12:26.966Z,-0.80
2022-12-11T21:17:34.559Z,-0.80
2022-12-11T21:22:36.405Z,-0.80
2022-12-11T21:27:38.318Z,-0.80
2022-12-11T21:32:40.292Z,-0.90
2022-12-11T21:37:42.028Z,-1.00
2022-12-11T21:42:43.851Z,-1.00
2022-12-11T21:47:45.633Z,-1.10
2022-12-11T21:52:48.682Z,-1.10
2022-12-11T21:57:50.838Z,-1.00
2022-12-11T22:02:52.685Z,-0.90
2022-12-11T22:07:54.572Z,-1.00
2022-12-11T22:12:56.508Z,-0.90
2022-12-11T22:17:58.273Z,-0.90
2022-12-11T22:23:00.056Z,-0.90
2022-12-11T22:28:02.113Z,-1.10
2022-12-11T22:33:03.933Z,-0.90
2022-12-11T22:38:06.566Z,-1.00
2022-12-11T22:43:08.316Z,-0.80
2022-12-11T22:48:10.120Z,-1.20
2022-12-11T22:53:12.040Z,-1.10
2022-12-11T22:58:18.574Z,-1.00
2022-12-11T23:03:23.285Z,-1.00
2022-12-11T23:08:25.167Z,-1.10
2022-12-11T23:13:27.071Z,-0.90
2022-12-11T23:18:28.775Z,-1.10
2022-12-11T23:23:30.481Z,-0.90
2022-12-11T23:28:32.198Z,-1.10
2022-12-11T23:33:34.019Z,-0.90
2022-12-11T23:38:36.238Z,-0.90
2022-12-11T23:43:38.387Z,-0.90
2022-12-11T23:48:40.676Z,-0.90
2022-12-11T23:53:42.949Z,-1.10
2022-12-11T23:58:44.934Z,-1.00
